Hauptseite
METAR-TAF:

METAR-TAF

Flughäfen :

Rimini, Italien

Flughafen Rimini

Breite: 44-02N, Länge: 012-37E, Höhe: 12 m

Beobachtung

Neuester Wetterbericht von vor 42 Minuten, um 10:45 UTC
Windstille
Temperatur 13°C
Luftfeuchtigkeit 77%
Luftdruck 1021 hPa
Sichtweite: 3000 m
feuchter Dunst

METAR: LIPR 231045Z 00000KT 3000 BR NSC 13/09 Q1021 RMK FEW FEW200 VIS MIN 3000 WIND THR31 00000KT YLO

Zeit: 12:27 (11:27 UTC)

Prognose

Neuester Wetterbericht von vor 3 Stunden und 27 Minuten, um 08:00 UTC
Gültige Prognose vom 23 um 09 UTC bis 23 um 18 UTC
Wind 5 kt aus Ost
Sichtweite: 3000 m
Aufgelockert bewölkt in der Höhe von 4000 ft
feuchter Dunst
Zeitweise
vom 23 um 09 UTC bis 23 um 11 UTC
Sichtweite: 1500 m
feuchter Dunst

TAF: LIPR 230800Z 2309/2318 08005KT 3000 BR SCT040 TEMPO 2309/2311 1500 BR

Wetterbeobachtungen und Prognosen von mehr als 4000 Flughäfen (METAR und TAF Bericht).

Die verfügbaren Stationen werden durch gelbe und rote Markierungen auf der Karte dargestellt.

Führen Sie die Maus auf sie, um den Namen der Station zu sehen.

Darauf klicken, um die Beobachtung von Wetterbeobachtungen und Prognosen zu sehen.

Um die Karte zu ändern : klicken Sie auf den grünen Tasten mit einem schwarzen Kreuz Zum Vergrößern, auf den grünen Button mit einem Gedankenstrich zu verkleinern, oder auf die grünen Pfeile für benachbarte Karten.


METAR-TAF: